createdAt,value
2019-04-23T11:39:42.994Z,23.60
2019-04-23T11:40:37.825Z,23.80
2019-04-23T11:41:45.371Z,23.60
2019-04-23T11:42:47.180Z,23.46
2019-04-23T11:43:32.560Z,23.45
2019-04-23T11:51:05.074Z,23.24
2019-04-23T11:52:41.459Z,22.82
2019-04-23T11:53:42.560Z,22.80
2019-04-23T11:54:36.027Z,22.90
2019-04-23T11:57:52.592Z,23.55
2019-04-23T12:00:05.303Z,23.47
2019-04-23T12:01:00.903Z,23.47
2019-04-23T12:01:47.787Z,23.90
2019-04-23T12:03:45.401Z,23.53
2019-04-23T12:04:45.303Z,23.39
2019-04-23T12:06:09.530Z,23.27
2019-04-23T12:06:44.476Z,22.75
2019-04-23T12:07:41.228Z,23.09
2019-04-23T12:08:56.591Z,22.94
2019-04-23T12:10:47.832Z,23.43
2019-04-23T12:13:44.111Z,23.58
2019-04-23T12:14:51.674Z,23.45
2019-04-23T12:15:39.556Z,23.62
2019-04-23T12:16:55.593Z,23.87
2019-04-23T12:19:33.404Z,23.76
2019-04-23T12:20:49.520Z,23.76
2019-04-23T12:21:53.127Z,24.13
2019-04-23T12:22:51.292Z,24.22
2019-04-23T12:25:45.829Z,23.40
2019-04-23T12:26:49.316Z,23.45
2019-04-23T12:28:01.741Z,23.70
2019-04-23T12:28:56.816Z,24.10
2019-04-23T12:30:49.111Z,24.00
2019-04-23T12:31:56.997Z,23.79
2019-04-23T12:32:53.694Z,24.07
2019-04-23T12:35:01.301Z,24.16
2019-04-23T12:35:40.467Z,24.22
2019-04-23T12:36:46.899Z,24.31
2019-04-23T12:38:45.314Z,24.57
2019-04-23T12:39:56.774Z,24.63
2019-04-23T12:40:45.919Z,24.63
2019-04-23T12:41:54.671Z,24.39
2019-04-23T12:42:55.204Z,24.42
2019-04-23T12:43:53.253Z,24.67
2019-04-23T12:44:56.723Z,24.64
2019-04-23T12:45:43.646Z,24.88
2019-04-23T12:47:09.063Z,24.42
2019-04-23T12:49:00.557Z,23.97
2019-04-23T12:50:44.784Z,24.05
2019-04-23T12:51:56.093Z,24.19
2019-04-23T12:53:50.711Z,24.17
2019-04-23T12:54:58.913Z,24.41
2019-04-23T12:55:43.780Z,24.27
2019-04-23T12:57:53.507Z,24.16
2019-04-23T12:58:45.238Z,24.34
2019-04-23T12:59:53.087Z,24.05
2019-04-23T13:00:45.808Z,23.95
2019-04-23T13:01:55.922Z,23.82
2019-04-23T13:02:48.512Z,24.01
2019-04-23T13:03:56.280Z,24.02
2019-04-23T13:04:51.732Z,23.77
2019-04-23T13:05:42.261Z,23.77
2019-04-23T13:06:50.869Z,23.68
2019-04-23T13:07:52.046Z,23.55
2019-04-23T13:08:53.721Z,23.53
2019-04-23T13:09:54.060Z,23.61
2019-04-23T13:11:50.014Z,23.94
2019-04-23T13:13:21.147Z,24.34
2019-04-23T13:13:53.560Z,24.56
2019-04-23T13:16:02.548Z,24.14
2019-04-23T13:17:01.949Z,23.87
2019-04-23T13:18:52.450Z,23.98
2019-04-23T13:20:51.368Z,23.72
2019-04-23T13:23:49.445Z,23.85
2019-04-23T13:24:56.007Z,24.00
2019-04-23T13:25:54.129Z,24.20
2019-04-23T13:26:57.284Z,24.05
2019-04-23T13:28:51.011Z,23.97
2019-04-23T13:29:56.789Z,23.85
2019-04-23T13:31:17.833Z,23.72
2019-04-23T13:31:50.238Z,23.62
2019-04-23T13:32:59.073Z,23.65
2019-04-23T13:33:52.143Z,23.72
2019-04-23T13:36:01.706Z,23.79
2019-04-23T13:37:05.165Z,24.05
2019-04-23T13:38:34.876Z,23.98
2019-04-23T13:38:55.002Z,24.01
2019-04-23T13:40:24.439Z,24.20
2019-04-23T13:41:01.306Z,24.10
2019-04-23T13:41:52.512Z,23.94
2019-04-23T13:43:01.519Z,23.98
2019-04-23T13:43:47.855Z,23.94
2019-04-23T13:45:07.339Z,23.89
2019-04-23T13:47:02.964Z,23.92
2019-04-23T13:48:06.582Z,24.08
2019-04-23T13:49:02.752Z,24.17
2019-04-23T13:50:07.447Z,24.17
2019-04-23T13:52:12.795Z,24.04
2019-04-23T13:53:58.861Z,24.04
2019-04-23T13:55:11.147Z,23.95
2019-04-23T13:55:47.084Z,23.77
2019-04-23T13:58:10.992Z,23.89
2019-04-23T13:59:09.531Z,23.98
2019-04-23T14:00:09.012Z,24.05
2019-04-23T14:01:07.462Z,24.14
2019-04-23T14:02:07.730Z,24.45
2019-04-23T14:03:06.160Z,24.45
2019-04-23T14:04:27.744Z,24.38
2019-04-23T14:06:09.064Z,24.00
2019-04-23T14:08:12.178Z,23.98
2019-04-23T14:08:59.585Z,23.86
2019-04-23T14:10:18.229Z,23.76
2019-04-23T14:11:05.553Z,23.83
2019-04-23T14:12:01.651Z,23.77
2019-04-23T14:13:30.210Z,24.00
2019-04-23T14:14:25.483Z,24.22
2019-04-23T14:16:03.895Z,23.70
2019-04-23T14:17:18.663Z,23.68
2019-04-23T14:18:29.462Z,23.75
2019-04-23T14:19:12.972Z,23.92
2019-04-23T14:20:07.198Z,23.94
2019-04-23T14:21:14.170Z,23.90
2019-04-23T14:25:08.066Z,24.08
2019-04-23T14:27:08.814Z,24.10
2019-04-23T14:29:07.316Z,24.42
2019-04-23T14:30:13.790Z,24.71
2019-04-23T14:32:08.778Z,24.61
2019-04-23T14:33:15.301Z,24.34
2019-04-23T14:34:04.839Z,24.00
2019-04-23T14:35:25.444Z,23.77
2019-04-23T14:36:12.540Z,24.02
2019-04-23T14:37:13.279Z,23.94
2019-04-23T14:39:10.035Z,24.14
2019-04-23T14:40:13.351Z,24.29
2019-04-23T14:42:33.801Z,24.39
2019-04-23T14:44:12.985Z,24.41
2019-04-23T14:45:25.013Z,24.37
2019-04-23T14:47:22.151Z,24.20
2019-04-23T14:48:19.723Z,24.31
2019-04-23T14:49:30.078Z,24.37
2019-04-23T14:50:29.426Z,24.32
2019-04-23T14:52:16.439Z,24.19
2019-04-23T14:53:21.451Z,24.23
2019-04-23T14:54:12.857Z,24.37
2019-04-23T14:55:40.540Z,24.29
2019-04-23T14:56:17.059Z,24.23
2019-04-23T14:57:23.204Z,24.24
2019-04-23T14:58:23.802Z,24.37
2019-04-23T14:59:06.729Z,24.19
2019-04-23T15:00:23.485Z,24.17
2019-04-23T15:03:20.400Z,23.97
2019-04-23T15:04:11.035Z,23.98
2019-04-23T15:05:21.703Z,24.02
2019-04-23T15:07:22.909Z,23.65
2019-04-23T15:08:21.130Z,23.67
2019-04-23T15:09:22.956Z,23.71
2019-04-23T15:10:18.463Z,23.70
2019-04-23T15:13:06.889Z,23.67
2019-04-23T15:13:21.254Z,23.90
2019-04-23T15:14:17.590Z,23.80
2019-04-23T15:16:39.869Z,23.80
2019-04-23T15:18:20.256Z,23.98
2019-04-23T15:19:34.592Z,23.85
2019-04-23T15:20:17.195Z,23.80
2019-04-23T15:21:37.638Z,23.83
2019-04-23T15:23:33.301Z,23.42
2019-04-23T15:25:26.399Z,23.35
2019-04-23T15:28:07.800Z,23.26
2019-04-23T15:29:04.487Z,23.22
2019-04-23T15:30:09.064Z,23.31
2019-04-23T15:31:28.468Z,23.32
2019-04-23T15:32:23.854Z,23.11
2019-04-23T15:33:41.276Z,22.89
2019-04-23T15:35:37.105Z,22.94
2019-04-23T15:36:58.219Z,22.87
2019-04-23T15:37:33.232Z,22.93
2019-04-23T15:38:34.004Z,22.89
2019-04-23T15:39:21.116Z,22.89
2019-04-23T15:42:26.589Z,22.47
2019-04-23T15:45:24.197Z,22.46
2019-04-23T15:46:30.661Z,22.44
2019-04-23T15:49:01.507Z,22.54
2019-04-23T15:49:23.471Z,22.56
2019-04-23T15:50:29.732Z,22.52
2019-04-23T15:52:35.264Z,22.35
2019-04-23T15:53:11.576Z,22.44
2019-04-23T15:55:22.164Z,22.59
2019-04-23T15:57:41.799Z,22.34
2019-04-23T15:58:35.751Z,22.37
2019-04-23T16:00:18.109Z,22.47
2019-04-23T16:01:24.081Z,22.41
2019-04-23T16:01:54.320Z,22.38
2019-04-23T16:02:54.540Z,22.32
2019-04-23T16:03:59.328Z,22.32
2019-04-23T16:04:58.071Z,22.29
2019-04-23T16:05:55.336Z,22.27
2019-04-23T16:06:55.975Z,22.22
2019-04-23T16:08:23.909Z,22.23
2019-04-23T16:09:17.814Z,22.34
2019-04-23T16:10:28.817Z,22.22
2019-04-23T16:12:25.539Z,22.39
2019-04-23T16:13:31.069Z,22.23
2019-04-23T16:14:32.495Z,22.27
2019-04-23T16:15:23.165Z,22.13
2019-04-23T16:16:29.980Z,22.16
2019-04-23T16:17:29.081Z,22.19
2019-04-23T16:18:42.151Z,22.25
2019-04-23T16:19:25.503Z,22.23
2019-04-23T16:20:31.465Z,22.19
2019-04-23T16:21:35.856Z,22.23
2019-04-23T16:22:24.890Z,22.01
2019-04-23T16:23:28.013Z,21.95
2019-04-23T16:24:21.918Z,21.92
2019-04-23T16:25:20.398Z,21.83
2019-04-23T16:26:53.234Z,21.92
2019-04-23T16:27:19.628Z,21.95
2019-04-23T16:28:50.456Z,21.88
2019-04-23T16:29:35.884Z,21.76
2019-04-23T16:30:31.312Z,21.78
2019-04-23T16:32:56.112Z,21.72
2019-04-23T16:33:20.100Z,21.71
2019-04-23T16:34:33.742Z,21.60
2019-04-23T16:37:29.253Z,21.67
2019-04-23T16:38:39.922Z,21.74
2019-04-23T16:39:31.682Z,21.78
2019-04-23T16:40:33.172Z,21.76
2019-04-23T16:41:42.199Z,21.71
2019-04-23T16:42:38.238Z,21.66
2019-04-23T16:43:30.651Z,21.71
2019-04-23T16:44:39.294Z,21.74
2019-04-23T16:46:54.115Z,21.69
2019-04-23T16:47:30.647Z,21.66
2019-04-23T16:49:44.593Z,21.74
2019-04-23T16:50:41.758Z,21.67
2019-04-23T16:52:32.846Z,21.66
2019-04-23T16:54:45.327Z,21.61
2019-04-23T16:55:38.357Z,21.81
2019-04-23T16:56:55.398Z,21.63
2019-04-23T16:59:43.349Z,21.39
2019-04-23T17:00:43.985Z,21.42
2019-04-23T17:01:37.298Z,21.42
2019-04-23T17:02:34.036Z,21.39
2019-04-23T17:04:39.005Z,21.41
2019-04-23T17:06:57.855Z,21.44
2019-04-23T17:07:38.134Z,21.45
2019-04-23T17:08:53.619Z,21.41
2019-04-23T17:10:38.404Z,21.44
2019-04-23T17:11:34.320Z,21.36
2019-04-23T17:12:38.726Z,21.26
2019-04-23T17:13:55.422Z,21.30
2019-04-23T17:14:32.997Z,21.27
2019-04-23T17:15:48.406Z,21.27
2019-04-23T17:16:39.920Z,21.32
2019-04-23T17:17:30.852Z,21.23
2019-04-23T17:19:40.609Z,21.19
2019-04-23T17:20:41.295Z,21.20
2019-04-23T17:21:53.363Z,21.17
2019-04-23T17:22:38.758Z,21.23
2019-04-23T17:25:01.955Z,21.17
2019-04-23T17:25:41.894Z,21.14
2019-04-23T17:26:35.888Z,20.95
2019-04-23T17:27:42.451Z,21.01
2019-04-23T17:29:02.673Z,21.02
2019-04-23T17:30:41.757Z,21.08
2019-04-23T17:32:36.197Z,21.05
2019-04-23T17:33:43.557Z,20.90
2019-04-23T17:35:45.036Z,21.01
2019-04-23T17:36:37.425Z,20.93
2019-04-23T17:37:38.558Z,20.95
2019-04-23T17:38:51.426Z,20.84
2019-04-23T17:39:43.869Z,20.90
2019-04-23T17:40:39.375Z,20.87
2019-04-23T17:41:57.444Z,20.91
2019-04-23T17:42:37.369Z,20.95
2019-04-23T17:43:54.741Z,20.87
2019-04-23T17:45:40.777Z,20.83
2019-04-23T17:46:43.139Z,20.84
2019-04-23T17:47:47.920Z,20.74
2019-04-23T17:48:34.998Z,20.80
2019-04-23T17:49:51.316Z,20.71
2019-04-23T17:50:44.087Z,20.79
2019-04-23T17:51:40.388Z,20.81
2019-04-23T17:52:52.628Z,20.71
2019-04-23T17:53:49.873Z,20.72
2019-04-23T17:54:53.489Z,20.79
2019-04-23T17:55:54.888Z,20.77
2019-04-23T17:56:54.163Z,20.74
2019-04-23T17:57:45.973Z,20.68
2019-04-23T17:58:58.615Z,20.61
2019-04-23T18:00:00.311Z,20.64
2019-04-23T18:00:51.615Z,20.51
2019-04-23T18:02:00.167Z,20.50
2019-04-23T18:02:55.168Z,20.54
2019-04-23T18:03:55.540Z,20.54
2019-04-23T18:06:04.071Z,20.39
2019-04-23T18:07:54.088Z,20.39
2019-04-23T18:09:57.031Z,20.34
2019-04-23T18:11:01.549Z,20.35
2019-04-23T18:12:51.503Z,20.39
2019-04-23T18:13:50.571Z,20.27
2019-04-23T18:14:59.067Z,20.20
2019-04-23T18:15:53.731Z,20.27
2019-04-23T18:17:24.205Z,20.30
2019-04-23T18:17:57.097Z,20.33
2019-04-23T18:19:06.401Z,20.31
2019-04-23T18:19:53.579Z,20.35
2019-04-23T18:20:57.953Z,20.30
2019-04-23T18:21:58.985Z,20.31
2019-04-23T18:22:54.306Z,20.21
2019-04-23T18:23:55.336Z,20.20
2019-04-23T18:24:50.544Z,20.21
2019-04-23T18:25:56.297Z,20.21
2019-04-23T18:28:58.754Z,20.13
2019-04-23T18:32:03.718Z,20.12
2019-04-23T18:33:22.014Z,20.06
2019-04-23T18:34:05.391Z,20.10
2019-04-23T18:35:13.834Z,20.02
2019-04-23T18:35:44.690Z,20.00
2019-04-23T18:36:52.197Z,19.83
2019-04-23T18:37:49.231Z,19.83
2019-04-23T18:38:53.234Z,19.76
2019-04-23T18:39:49.918Z,19.84
2019-04-23T18:41:02.028Z,19.83
2019-04-23T18:42:04.086Z,19.87
2019-04-23T18:42:53.829Z,19.80
2019-04-23T18:43:50.961Z,19.86
2019-04-23T18:44:58.522Z,19.70
2019-04-23T18:46:49.127Z,19.73
2019-04-23T18:47:50.368Z,19.66
2019-04-23T18:49:55.824Z,19.66
2019-04-23T18:51:00.179Z,19.75
2019-04-23T18:52:14.555Z,19.63
2019-04-23T18:52:57.864Z,19.68
2019-04-23T18:54:53.911Z,19.73
2019-04-23T18:56:06.677Z,19.65
2019-04-23T18:58:04.031Z,19.70
2019-04-23T18:59:00.891Z,19.65
2019-04-23T18:59:57.044Z,19.54
2019-04-23T19:02:00.676Z,19.54
2019-04-23T19:04:07.163Z,19.54
2019-04-23T19:05:07.221Z,19.60
2019-04-23T19:06:07.157Z,19.46
2019-04-23T19:06:41.289Z,19.51
2019-04-23T19:08:07.555Z,19.42
2019-04-23T19:09:04.412Z,19.42
2019-04-23T19:10:15.793Z,19.46
2019-04-23T19:10:58.013Z,19.53
2019-04-23T19:12:24.813Z,19.42
2019-04-23T19:13:57.376Z,19.42
2019-04-23T19:15:05.633Z,19.38
2019-04-23T19:15:53.593Z,19.29
2019-04-23T19:18:16.930Z,19.08
2019-04-23T19:20:00.991Z,19.11
2019-04-23T19:23:08.243Z,19.15
2019-04-23T19:23:54.949Z,19.21
2019-04-23T19:25:01.715Z,19.15
2019-04-23T19:26:40.537Z,19.15
2019-04-23T19:28:12.101Z,19.14
2019-04-23T19:29:07.072Z,19.14
2019-04-23T19:30:31.308Z,19.11
2019-04-23T19:31:01.816Z,19.13
2019-04-23T19:33:05.840Z,19.08
2019-04-23T19:34:58.955Z,19.13
2019-04-23T19:36:19.041Z,19.11
2019-04-23T19:38:10.576Z,19.06
2019-04-23T19:39:14.838Z,18.95
2019-04-23T19:40:04.781Z,18.97
2019-04-23T19:41:02.203Z,18.99
2019-04-23T19:43:00.928Z,18.97
2019-04-23T19:45:07.775Z,19.01
2019-04-23T19:46:16.190Z,18.95
2019-04-23T19:48:13.443Z,18.98
2019-04-23T19:50:03.637Z,19.02
2019-04-23T19:51:11.422Z,19.01
2019-04-23T19:54:20.150Z,18.92
2019-04-23T19:57:17.849Z,18.95
2019-04-23T19:58:16.126Z,18.97
2019-04-23T19:59:01.920Z,18.82
2019-04-23T20:00:09.718Z,18.94
2019-04-23T20:03:17.170Z,18.79
2019-04-23T20:04:04.282Z,18.80
2019-04-23T20:05:09.227Z,18.72
2019-04-23T20:06:07.913Z,18.65
2019-04-23T20:08:16.349Z,18.72
2019-04-23T20:10:03.962Z,18.77
2019-04-23T20:12:13.995Z,18.73
2019-04-23T20:13:07.880Z,18.74
2019-04-23T20:14:29.596Z,18.80
2019-04-23T20:15:00.234Z,18.77
2019-04-23T20:16:26.016Z,18.79
2019-04-23T20:17:32.053Z,18.79
2019-04-23T20:18:09.043Z,18.61
2019-04-23T20:19:05.141Z,18.64
2019-04-23T20:20:08.965Z,18.58
2019-04-23T20:21:03.793Z,18.67
2019-04-23T20:23:11.895Z,18.65
2019-04-23T20:24:20.279Z,18.59
2019-04-23T20:25:44.193Z,18.67
2019-04-23T20:27:26.422Z,18.70
2019-04-23T20:28:33.819Z,18.59
2019-04-23T20:35:16.621Z,18.54
2019-04-23T20:36:25.803Z,18.57
2019-04-23T20:37:12.650Z,18.57
2019-04-23T20:40:31.146Z,18.58
2019-04-23T20:41:28.290Z,18.49
2019-04-23T20:42:18.285Z,18.49
2019-04-23T20:43:14.959Z,18.49
2019-04-23T20:44:25.658Z,18.50
2019-04-23T20:45:42.347Z,18.40
2019-04-23T20:46:14.800Z,18.40
2019-04-23T20:48:27.344Z,18.37
2019-04-23T20:49:23.370Z,18.50
2019-04-23T20:50:10.456Z,18.44
2019-04-23T20:51:14.329Z,18.43
2019-04-23T20:53:13.670Z,18.36
2019-04-23T20:54:27.034Z,18.28
2019-04-23T20:55:25.951Z,18.33
2019-04-23T20:56:27.158Z,18.33
2019-04-23T20:57:30.522Z,18.43
2019-04-23T20:58:15.208Z,18.40
2019-04-23T20:59:30.854Z,18.40
2019-04-23T21:01:21.868Z,18.36
2019-04-23T21:02:30.007Z,18.42
2019-04-23T21:04:17.757Z,18.39
2019-04-23T21:06:28.381Z,18.29
2019-04-23T21:07:28.317Z,18.43
2019-04-23T21:08:24.644Z,18.36
2019-04-23T21:09:33.477Z,18.29
2019-04-23T21:10:34.820Z,18.28
2019-04-23T21:11:24.998Z,18.22
2019-04-23T21:12:43.126Z,18.33
2019-04-23T21:14:40.387Z,18.27
2019-04-23T21:16:25.093Z,18.33
2019-04-23T21:17:29.248Z,18.27
2019-04-23T21:19:35.664Z,18.18
2019-04-23T21:20:33.581Z,18.21
2019-04-23T21:21:27.127Z,18.07
2019-04-23T21:22:30.751Z,18.15
2019-04-23T21:23:30.265Z,18.10
2019-04-23T21:24:27.379Z,18.12
2019-04-23T21:26:26.335Z,18.09
2019-04-23T21:27:41.012Z,18.13
2019-04-23T21:29:25.876Z,18.07
2019-04-23T21:30:43.146Z,18.22
2019-04-23T21:31:42.798Z,18.18
2019-04-23T21:32:35.420Z,18.04
2019-04-23T21:33:25.962Z,18.15
2019-04-23T21:34:24.873Z,18.03
2019-04-23T21:35:46.340Z,17.99
2019-04-23T21:37:37.384Z,17.95
2019-04-23T21:38:41.123Z,17.91
2019-04-23T21:39:38.969Z,18.00
2019-04-23T21:41:39.258Z,17.97
2019-04-23T21:42:39.057Z,17.97
2019-04-23T21:43:35.875Z,17.85
2019-04-23T21:44:40.799Z,17.78
2019-04-23T21:45:35.096Z,17.88
2019-04-23T21:46:41.695Z,17.91
2019-04-23T21:47:42.635Z,17.82
2019-04-23T21:48:48.759Z,17.76
2019-04-23T21:49:38.960Z,17.79
2019-04-23T21:50:39.480Z,17.74
2019-04-23T21:52:48.465Z,17.64
2019-04-23T21:53:32.873Z,17.66
2019-04-23T21:54:29.280Z,17.69
2019-04-23T21:55:39.023Z,17.64
2019-04-23T21:56:33.187Z,17.63
2019-04-23T21:57:41.834Z,17.51
2019-04-23T21:58:47.610Z,17.54
2019-04-23T21:59:32.402Z,17.44
2019-04-23T22:00:36.509Z,17.46
2019-04-23T22:01:38.283Z,17.41
2019-04-23T22:02:36.093Z,17.41
2019-04-23T22:03:43.575Z,17.32
2019-04-23T22:06:36.921Z,17.29
2019-04-23T22:07:49.457Z,17.29
2019-04-23T22:08:41.335Z,17.23
2019-04-23T22:09:37.854Z,17.29
2019-04-23T22:10:32.989Z,17.14
2019-04-23T22:12:33.467Z,17.15
2019-04-23T22:13:53.858Z,17.13
2019-04-23T22:15:47.828Z,17.20
2019-04-23T22:16:46.255Z,17.26
2019-04-23T22:18:46.079Z,17.17
2019-04-23T22:20:43.704Z,17.15
2019-04-23T22:21:47.290Z,17.14
2019-04-23T22:22:49.593Z,17.13
2019-04-23T22:23:52.881Z,17.07
2019-04-23T22:24:32.165Z,16.96
2019-04-23T22:25:50.178Z,17.06
2019-04-23T22:26:53.407Z,17.10
2019-04-23T22:27:41.242Z,17.06
2019-04-23T22:28:50.707Z,17.10
2019-04-23T22:30:50.548Z,17.06
2019-04-23T22:31:41.799Z,17.00
2019-04-23T22:32:48.724Z,16.99
2019-04-23T22:33:47.717Z,16.98
2019-04-23T22:34:42.851Z,16.86
2019-04-23T22:35:51.444Z,16.88
2019-04-23T22:36:42.500Z,16.80
2019-04-23T22:37:42.440Z,16.80
2019-04-23T22:38:45.283Z,16.77
2019-04-23T22:39:39.867Z,16.83
2019-04-23T22:40:41.381Z,16.83
2019-04-23T22:41:58.163Z,16.83
2019-04-23T22:43:55.681Z,17.06
2019-04-23T22:44:51.350Z,17.00
2019-04-23T22:45:59.916Z,16.93
2019-04-23T22:46:52.404Z,17.06
2019-04-23T22:47:47.936Z,16.93
2019-04-23T22:48:47.621Z,16.98
2019-04-23T22:49:44.103Z,16.93
2019-04-23T22:50:47.404Z,16.83
2019-04-23T22:51:59.178Z,16.78
2019-04-23T22:52:48.807Z,16.83
2019-04-23T22:53:53.801Z,16.78
2019-04-23T22:54:51.302Z,16.81
2019-04-23T22:55:49.703Z,16.78
2019-04-23T22:56:53.649Z,16.74
2019-04-23T22:57:58.715Z,16.81
2019-04-23T22:58:54.380Z,16.75
2019-04-23T23:00:00.718Z,16.81
2019-04-23T23:00:46.738Z,16.73
2019-04-23T23:02:53.512Z,16.71
2019-04-23T23:03:54.503Z,16.70
2019-04-23T23:04:52.516Z,16.65
2019-04-23T23:06:06.419Z,16.65
2019-04-23T23:06:59.040Z,16.62
2019-04-23T23:07:55.751Z,16.65
2019-04-23T23:09:10.703Z,16.71
2019-04-23T23:09:56.438Z,16.58
2019-04-23T23:10:52.207Z,16.55
2019-04-23T23:13:01.777Z,16.50
2019-04-23T23:14:01.141Z,16.60
2019-04-23T23:14:57.448Z,16.52
2019-04-23T23:18:02.111Z,16.52
2019-04-23T23:18:59.805Z,16.52
2019-04-23T23:20:03.624Z,16.52
2019-04-23T23:20:55.347Z,16.53
2019-04-23T23:21:59.497Z,16.50
2019-04-23T23:22:57.283Z,16.34
2019-04-23T23:23:49.746Z,16.38
2019-04-23T23:25:02.645Z,16.38
2019-04-23T23:25:50.915Z,16.40
2019-04-23T23:26:54.178Z,16.38
2019-04-23T23:27:57.724Z,16.40
2019-04-23T23:28:48.857Z,16.42
2019-04-23T23:29:58.159Z,16.31
2019-04-23T23:31:03.154Z,16.31
2019-04-23T23:32:11.172Z,16.23
2019-04-23T23:32:58.800Z,16.30
2019-04-23T23:33:55.752Z,16.33
2019-04-23T23:35:12.921Z,16.30
2019-04-23T23:35:57.255Z,16.23
2019-04-23T23:37:02.173Z,16.26
2019-04-23T23:38:08.366Z,16.34
2019-04-23T23:39:59.919Z,16.30
2019-04-23T23:41:03.643Z,16.27
2019-04-23T23:41:57.224Z,16.38
2019-04-23T23:43:03.674Z,16.26
2019-04-23T23:44:16.627Z,16.42
2019-04-23T23:46:06.947Z,16.42
2019-04-23T23:47:03.204Z,16.37
2019-04-23T23:50:00.989Z,16.38
2019-04-23T23:51:00.726Z,16.35
2019-04-23T23:52:04.778Z,16.25
2019-04-23T23:53:02.719Z,16.25
2019-04-23T23:55:03.994Z,16.26
2019-04-23T23:55:07.851Z,16.27
2019-04-23T23:56:07.377Z,16.20
2019-04-23T23:57:56.795Z,16.20
2019-04-23T23:59:09.195Z,16.12
